Time;durP1;ratioP1;P1;durP2;ratioP2;P2;SDS_P1;SDS_P2;PMS_P1;PMS_P2;Temp;Humidity;BMP_temperature;BMP_pressure;BME280_temperature;BME280_humidity;BME280_pressure;Samples;Min_cycle;Max_cycle;Signal;HPM_P1;HPM_P2
2022/02/20 00:01:37;;;;;;;22.08;21.00;;;11.60;70.80;;;;;;5011633;28;20045;-85
2022/02/20 00:04:04;;;;;;;22.83;21.73;;;11.60;70.80;;;;;;5011471;28;20044;-85
2022/02/20 00:06:30;;;;;;;22.77;21.67;;;11.60;70.80;;;;;;5007226;28;20050;-85
2022/02/20 00:08:56;;;;;;;21.95;20.95;;;11.60;70.80;;;;;;5011568;28;20439;-85
2022/02/20 00:11:22;;;;;;;23.17;21.88;;;11.60;70.80;;;;;;5008844;28;20038;-85
2022/02/20 00:13:48;;;;;;;22.85;21.77;;;11.60;70.80;;;;;;5003971;28;20035;-85
2022/02/20 00:16:14;;;;;;;21.90;20.90;;;11.70;70.90;;;;;;5008550;28;20037;-85
2022/02/20 00:18:40;;;;;;;22.15;21.15;;;11.70;70.90;;;;;;5012436;28;20046;-85
2022/02/20 00:21:06;;;;;;;23.63;22.52;;;11.70;70.90;;;;;;5010148;28;20041;-84
2022/02/20 00:23:32;;;;;;;22.17;21.17;;;11.70;71.00;;;;;;5010888;28;20053;-85
2022/02/20 00:25:58;;;;;;;21.98;20.98;;;11.70;71.00;;;;;;5010302;28;20038;-85
2022/02/20 00:28:25;;;;;;;23.27;22.17;;;11.70;71.10;;;;;;5040401;28;20451;-85
2022/02/20 00:30:51;;;;;;;22.95;21.85;;;11.70;71.10;;;;;;5011749;28;20044;-85
2022/02/20 00:33:17;;;;;;;23.00;21.90;;;11.70;71.20;;;;;;5009830;28;20045;-85
2022/02/20 00:35:43;;;;;;;23.02;21.92;;;11.70;71.20;;;;;;5011277;28;20418;-85
2022/02/20 00:38:09;;;;;;;22.88;21.77;;;11.70;71.20;;;;;;5006487;28;20036;-85
2022/02/20 00:40:35;;;;;;;22.75;21.73;;;11.70;71.20;;;;;;5011531;28;20037;-85
2022/02/20 00:43:02;;;;;;;22.55;21.55;;;11.70;71.30;;;;;;5011925;28;20026;-85
2022/02/20 00:45:28;;;;;;;23.60;22.50;;;11.70;71.40;;;;;;5009610;28;20033;-85
2022/02/20 00:47:54;;;;;;;22.85;21.55;;;11.70;71.40;;;;;;5009651;28;20426;-85
2022/02/20 00:50:20;;;;;;;22.73;21.70;;;11.70;71.50;;;;;;5007683;28;20036;-85
2022/02/20 00:52:46;;;;;;;21.98;20.65;;;11.70;71.50;;;;;;5013021;28;20044;-85
2022/02/20 00:55:12;;;;;;;22.08;21.08;;;11.70;71.60;;;;;;5011080;28;20387;-85
2022/02/20 00:57:39;;;;;;;22.17;21.17;;;11.70;71.60;;;;;;5010057;28;20033;-85
2022/02/20 01:00:06;;;;;;;21.90;20.85;;;11.70;71.60;;;;;;5010164;28;20046;-85
2022/02/20 01:02:33;;;;;;;21.73;20.73;;;11.70;71.70;;;;;;5010719;28;20037;-85
2022/02/20 01:04:59;;;;;;;21.58;20.58;;;11.70;71.70;;;;;;5008109;28;20040;-85
2022/02/20 01:07:25;;;;;;;20.88;19.88;;;11.70;71.80;;;;;;5009031;28;20482;-85
2022/02/20 01:09:51;;;;;;;21.63;20.63;;;11.70;71.70;;;;;;5010253;28;20041;-85
2022/02/20 01:12:17;;;;;;;20.85;19.85;;;11.70;71.80;;;;;;5010794;28;20038;-85
2022/02/20 01:14:44;;;;;;;21.25;20.25;;;11.80;71.80;;;;;;5002292;28;20041;-85
2022/02/20 01:17:10;;;;;;;22.05;21.00;;;11.80;71.90;;;;;;5006825;28;20049;-85
2022/02/20 01:19:37;;;;;;;21.05;20.05;;;11.80;71.90;;;;;;5002245;28;20034;-85
2022/02/20 01:22:03;;;;;;;21.55;20.55;;;11.80;72.00;;;;;;5008717;28;20466;-85
2022/02/20 01:24:29;;;;;;;21.15;20.15;;;11.80;72.00;;;;;;5009090;28;20038;-85
2022/02/20 01:26:55;;;;;;;22.83;21.58;;;11.80;72.00;;;;;;5010179;28;20045;-85
2022/02/20 01:29:22;;;;;;;20.80;19.85;;;11.80;72.10;;;;;;5010381;28;20041;-85
2022/02/20 01:31:53;;;;;;;22.55;21.40;;;11.80;72.00;;;;;;5006687;28;20342;-86
2022/02/20 01:34:20;;;;;;;21.75;20.75;;;11.90;72.20;;;;;;5010183;28;20037;-85
2022/02/20 01:36:46;;;;;;;21.42;20.42;;;11.80;72.10;;;;;;5010622;28;20030;-85
2022/02/20 01:39:12;;;;;;;23.30;22.20;;;11.90;72.20;;;;;;5008847;28;20034;-85
2022/02/20 01:41:38;;;;;;;21.48;20.48;;;11.80;72.10;;;;;;5024536;28;20379;-84
2022/02/20 01:44:05;;;;;;;22.27;21.27;;;11.90;72.20;;;;;;5011019;28;20034;-85
2022/02/20 01:46:32;;;;;;;22.77;21.67;;;11.90;72.20;;;;;;5004755;28;20042;-85
2022/02/20 01:48:58;;;;;;;20.95;19.95;;;11.90;72.20;;;;;;5005889;28;20026;-85
2022/02/20 01:51:24;;;;;;;21.88;20.67;;;11.90;72.20;;;;;;5010427;28;20038;-85
2022/02/20 01:53:50;;;;;;;22.17;21.17;;;11.90;72.30;;;;;;5010992;28;20037;-85
2022/02/20 01:56:17;;;;;;;21.38;20.38;;;11.90;72.40;;;;;;5009743;28;20064;-85
2022/02/20 01:58:43;;;;;;;23.20;22.10;;;11.90;72.40;;;;;;5009538;28;20045;-85
2022/02/20 02:01:09;;;;;;;21.55;20.48;;;11.90;72.40;;;;;;5009464;28;20045;-85
2022/02/20 02:03:36;;;;;;;22.25;21.25;;;11.90;72.40;;;;;;5010493;28;20026;-85
2022/02/20 02:06:03;;;;;;;22.08;21.08;;;11.90;72.40;;;;;;5010735;28;20513;-85
2022/02/20 02:08:29;;;;;;;21.50;20.50;;;11.90;72.50;;;;;;5013974;28;20029;-85
2022/02/20 02:10:55;;;;;;;21.42;20.42;;;11.90;72.50;;;;;;5011681;28;20042;-85
2022/02/20 02:13:21;;;;;;;24.10;22.58;;;11.90;72.50;;;;;;5011063;28;20033;-85
2022/02/20 02:15:54;;;;;;;22.98;21.70;;;11.90;72.60;;;;;;5012402;28;20034;-85
2022/02/20 02:18:20;;;;;;;22.90;21.83;;;11.90;72.60;;;;;;5011018;28;20501;-85
2022/02/20 02:20:46;;;;;;;22.63;21.52;;;11.90;72.60;;;;;;5044624;28;20048;-85
2022/02/20 02:23:13;;;;;;;21.63;20.63;;;12.00;72.70;;;;;;5007199;28;20307;-85
2022/02/20 02:25:39;;;;;;;23.50;22.05;;;11.90;72.60;;;;;;5014263;28;20042;-85
2022/02/20 02:28:05;;;;;;;22.38;21.35;;;12.00;72.70;;;;;;5007288;28;20042;-85
2022/02/20 02:30:31;;;;;;;21.67;20.67;;;11.90;72.70;;;;;;5029427;28;20033;-85
2022/02/20 02:32:57;;;;;;;22.23;21.02;;;11.90;72.80;;;;;;5009342;28;20034;-85
2022/02/20 02:35:24;;;;;;;22.80;21.70;;;12.00;72.80;;;;;;5044464;28;20025;-85
2022/02/20 02:37:52;;;;;;;21.80;20.80;;;12.00;72.80;;;;;;5013316;28;20034;-85
2022/02/20 02:40:19;;;;;;;24.27;22.70;;;12.00;72.90;;;;;;5012180;28;20041;-85
2022/02/20 02:42:45;;;;;;;23.70;22.60;;;12.00;72.90;;;;;;5013783;28;20034;-85
2022/02/20 02:45:11;;;;;;;24.27;22.83;;;12.00;73.00;;;;;;5012970;28;20025;-85
2022/02/20 02:47:37;;;;;;;22.65;21.63;;;12.00;73.10;;;;;;5011368;28;20045;-85
2022/02/20 02:50:04;;;;;;;23.10;22.00;;;11.90;73.00;;;;;;5012486;28;20037;-85
2022/02/20 02:52:30;;;;;;;23.17;21.88;;;12.00;73.10;;;;;;5010148;28;20375;-85
2022/02/20 02:54:56;;;;;;;22.85;21.52;;;12.00;73.10;;;;;;5013356;28;20501;-85
2022/02/20 02:57:22;;;;;;;22.10;21.10;;;12.00;73.10;;;;;;5013066;28;20033;-85
2022/02/20 02:59:48;;;;;;;22.90;21.83;;;12.00;73.10;;;;;;5012235;28;20402;-85
2022/02/20 03:02:14;;;;;;;23.17;22.08;;;12.00;73.20;;;;;;5010380;28;20038;-85
2022/02/20 03:04:40;;;;;;;21.38;20.38;;;12.00;73.30;;;;;;5008944;28;20399;-85
2022/02/20 03:07:08;;;;;;;22.30;21.30;;;12.00;73.20;;;;;;5007691;28;20038;-86
2022/02/20 03:09:35;;;;;;;22.73;21.73;;;12.00;73.20;;;;;;5005675;28;20045;-86
2022/02/20 03:12:02;;;;;;;22.15;21.15;;;12.00;73.20;;;;;;5010833;28;20045;-86
2022/02/20 03:14:28;;;;;;;22.83;21.80;;;12.00;73.30;;;;;;5009880;28;20034;-86
2022/02/20 03:16:54;;;;;;;23.10;22.00;;;12.00;73.20;;;;;;5009864;28;20038;-86
2022/02/20 03:19:20;;;;;;;22.95;21.85;;;12.00;73.30;;;;;;5008576;28;20026;-86
2022/02/20 03:21:46;;;;;;;24.63;22.70;;;12.00;73.30;;;;;;4996513;28;20049;-86
2022/02/20 03:24:12;;;;;;;23.17;22.08;;;12.00;73.30;;;;;;5009680;28;20767;-86
2022/02/20 03:26:38;;;;;;;23.42;22.23;;;12.00;73.30;;;;;;5007615;28;20034;-86
2022/02/20 03:29:05;;;;;;;24.10;22.67;;;12.00;73.30;;;;;;5006384;28;20472;-86
2022/02/20 03:31:33;;;;;;;22.73;21.70;;;12.00;73.30;;;;;;5009801;28;20038;-86
2022/02/20 03:33:59;;;;;;;23.05;21.95;;;12.00;73.30;;;;;;5033317;28;20045;-86
2022/02/20 03:36:25;;;;;;;22.40;21.40;;;12.00;73.30;;;;;;5011164;28;20038;-85
2022/02/20 03:38:51;;;;;;;22.73;21.63;;;12.00;73.40;;;;;;5012989;28;20026;-85
2022/02/20 03:41:17;;;;;;;23.55;22.45;;;12.00;73.40;;;;;;5008495;28;20034;-85
2022/02/20 03:43:44;;;;;;;22.90;21.83;;;12.00;73.40;;;;;;5012609;28;20041;-85
2022/02/20 03:46:10;;;;;;;25.45;23.75;;;12.00;73.40;;;;;;5009896;28;20034;-86
2022/02/20 03:48:36;;;;;;;22.63;21.63;;;12.00;73.50;;;;;;5012437;28;20046;-86
2022/02/20 03:51:02;;;;;;;23.50;22.40;;;12.00;73.50;;;;;;5012297;28;20390;-86
2022/02/20 03:53:28;;;;;;;23.20;22.10;;;12.00;73.70;;;;;;5012063;28;20041;-86
2022/02/20 03:55:54;;;;;;;22.83;21.75;;;12.00;73.70;;;;;;5010095;28;20114;-85
2022/02/20 03:58:21;;;;;;;22.55;21.55;;;11.90;73.70;;;;;;5010086;28;20041;-88
2022/02/20 04:00:47;;;;;;;22.45;21.40;;;11.90;73.80;;;;;;4995671;28;20041;-85
2022/02/20 04:03:13;;;;;;;21.63;20.63;;;11.90;73.90;;;;;;5010515;28;20036;-85
2022/02/20 04:05:39;;;;;;;22.13;20.85;;;11.90;73.90;;;;;;5012310;28;20033;-85
2022/02/20 04:08:06;;;;;;;21.65;20.65;;;11.80;73.80;;;;;;5010557;28;20053;-85
2022/02/20 04:10:33;;;;;;;21.10;20.10;;;11.80;73.90;;;;;;5010353;28;20026;-86
2022/02/20 04:12:59;;;;;;;23.90;21.88;;;11.80;74.00;;;;;;5009001;28;20049;-86
2022/02/20 04:15:25;;;;;;;22.48;21.38;;;11.80;74.00;;;;;;5011014;28;20042;-81
2022/02/20 04:17:52;;;;;;;23.10;21.65;;;11.80;74.00;;;;;;5008864;28;20031;-86
2022/02/20 04:20:18;;;;;;;21.58;20.58;;;11.80;74.00;;;;;;5011969;28;20053;-86
2022/02/20 04:22:45;;;;;;;21.17;20.17;;;11.80;74.00;;;;;;5007327;28;20486;-85
2022/02/20 04:25:11;;;;;;;21.45;20.45;;;11.80;74.00;;;;;;5008831;28;20030;-85
2022/02/20 04:27:37;;;;;;;21.48;20.48;;;11.80;74.00;;;;;;5007626;28;20057;-88
2022/02/20 04:30:05;;;;;;;21.30;20.30;;;11.80;74.10;;;;;;5003722;28;20022;-88
2022/02/20 04:32:32;;;;;;;21.73;20.73;;;11.80;74.10;;;;;;5006379;28;20022;-85
2022/02/20 04:34:58;;;;;;;21.38;20.38;;;11.80;74.10;;;;;;5007451;28;20041;-87
2022/02/20 04:37:24;;;;;;;21.33;20.23;;;11.80;74.10;;;;;;5011292;28;20037;-88
2022/02/20 04:39:50;;;;;;;21.38;20.27;;;11.80;74.10;;;;;;5008565;28;20033;-89
2022/02/20 04:42:16;;;;;;;22.40;21.30;;;11.80;74.10;;;;;;5011079;28;20041;-92
2022/02/20 04:44:42;;;;;;;21.10;20.10;;;11.80;74.00;;;;;;5004212;28;20022;-93
2022/02/20 04:47:08;;;;;;;21.73;20.73;;;11.80;74.10;;;;;;5007494;28;20046;-89
2022/02/20 04:49:35;;;;;;;22.13;20.92;;;11.80;74.10;;;;;;5007903;28;20041;-91
2022/02/20 04:52:01;;;;;;;21.17;20.17;;;11.80;74.10;;;;;;5009916;28;20037;-88
2022/02/20 04:54:27;;;;;;;22.55;21.25;;;11.80;74.10;;;;;;5004469;28;20045;-88
2022/02/20 04:56:53;;;;;;;21.08;20.08;;;11.80;74.10;;;;;;5021927;28;20414;-90
2022/02/20 04:59:19;;;;;;;22.50;21.38;;;11.80;74.20;;;;;;5010924;28;20034;-86
2022/02/20 05:01:45;;;;;;;21.05;20.05;;;11.80;74.20;;;;;;5023187;28;20036;-94
2022/02/20 05:04:12;;;;;;;21.90;20.90;;;11.80;74.20;;;;;;5025572;28;20033;-93
2022/02/20 05:06:38;;;;;;;21.30;20.20;;;11.80;74.20;;;;;;4998985;28;20045;-92
2022/02/20 05:09:04;;;;;;;22.67;21.20;;;11.90;74.30;;;;;;5023081;28;20033;-92
2022/02/20 05:11:30;;;;;;;20.45;19.55;;;11.90;74.30;;;;;;5016534;28;20037;-92
2022/02/20 05:14:00;;;;;;;20.88;19.88;;;11.90;74.30;;;;;;5016141;28;20042;-93
2022/02/20 05:16:27;;;;;;;21.02;20.02;;;11.90;74.30;;;;;;5001021;28;20034;-92
2022/02/20 05:18:54;;;;;;;20.98;19.98;;;11.90;74.30;;;;;;5015771;28;20038;-94
2022/02/20 05:21:20;;;;;;;21.38;20.38;;;11.80;74.30;;;;;;5020719;28;20439;-91
2022/02/20 05:23:46;;;;;;;20.48;19.52;;;11.90;74.30;;;;;;5019253;28;20037;-90
2022/02/20 05:26:13;;;;;;;21.30;20.23;;;11.90;74.40;;;;;;5012869;28;20026;-92
2022/02/20 05:28:40;;;;;;;21.42;20.15;;;11.90;74.40;;;;;;5018412;28;20062;-93
2022/02/20 05:31:06;;;;;;;20.90;19.90;;;11.90;74.40;;;;;;5049905;28;20057;-92
2022/02/20 05:33:32;;;;;;;21.02;20.02;;;11.90;74.40;;;;;;5014933;28;20034;-82
2022/02/20 05:35:58;;;;;;;20.90;19.90;;;11.90;74.40;;;;;;5013198;28;20033;-91
2022/02/20 05:38:24;;;;;;;21.13;20.13;;;11.90;74.50;;;;;;5008255;28;20498;-90
2022/02/20 05:40:50;;;;;;;20.88;19.90;;;11.90;74.40;;;;;;5008382;28;20018;-92
2022/02/20 05:43:16;;;;;;;21.20;19.92;;;11.90;74.40;;;;;;5016368;28;20398;-91
2022/02/20 05:45:42;;;;;;;21.48;20.48;;;11.90;74.40;;;;;;5020743;28;20501;-91
2022/02/20 05:48:08;;;;;;;21.52;20.52;;;11.90;74.40;;;;;;5004475;28;20061;-91
2022/02/20 05:50:35;;;;;;;21.27;20.08;;;11.90;74.40;;;;;;5019954;28;20036;-91
2022/02/20 05:53:01;;;;;;;21.13;20.13;;;12.00;74.50;;;;;;5019244;28;20034;-91
2022/02/20 05:55:27;;;;;;;21.05;20.05;;;11.90;74.40;;;;;;5005910;28;20041;-92
2022/02/20 05:57:54;;;;;;;21.45;20.45;;;12.00;74.50;;;;;;5023657;28;20041;-91
2022/02/20 06:00:25;;;;;;;21.10;20.10;;;12.00;74.50;;;;;;5018260;28;20040;-91
2022/02/20 06:02:51;;;;;;;21.73;20.65;;;12.00;74.50;;;;;;5022810;28;20026;-91
2022/02/20 06:05:17;;;;;;;21.02;20.02;;;12.00;74.50;;;;;;5019481;28;20387;-93
2022/02/20 06:07:43;;;;;;;21.45;20.33;;;12.00;74.50;;;;;;5004142;28;20042;-92
2022/02/20 06:10:10;;;;;;;20.55;19.65;;;12.00;74.60;;;;;;5019619;28;20054;-91
2022/02/20 06:12:36;;;;;;;20.85;19.85;;;12.00;74.50;;;;;;5019555;28;20037;-91
2022/02/20 06:15:03;;;;;;;23.15;21.02;;;12.00;74.50;;;;;;5022258;28;20037;-87
2022/02/20 06:17:29;;;;;;;21.77;20.77;;;12.00;74.60;;;;;;5019313;28;20040;-90
2022/02/20 06:19:55;;;;;;;21.75;20.65;;;12.00;74.60;;;;;;5022390;28;20041;-91
2022/02/20 06:22:21;;;;;;;20.95;19.95;;;12.00;74.70;;;;;;5012517;28;20475;-90
2022/02/20 06:24:47;;;;;;;20.17;19.27;;;12.00;74.70;;;;;;5015838;28;20037;-90
2022/02/20 06:27:13;;;;;;;21.55;20.35;;;12.10;74.70;;;;;;5000238;28;20042;-90
2022/02/20 06:29:40;;;;;;;21.05;20.05;;;12.00;74.70;;;;;;5018340;28;20025;-90
2022/02/20 06:32:06;;;;;;;20.80;19.80;;;12.00;74.70;;;;;;5014823;28;20037;-89
2022/02/20 06:34:32;;;;;;;20.70;19.70;;;12.00;74.80;;;;;;5014084;28;20395;-90
2022/02/20 06:36:58;;;;;;;20.95;19.95;;;12.10;74.90;;;;;;5021466;28;20030;-85
2022/02/20 06:39:25;;;;;;;21.10;20.10;;;12.10;74.90;;;;;;5023160;28;20030;-90
2022/02/20 06:41:51;;;;;;;20.90;19.73;;;12.10;74.90;;;;;;5015875;28;20525;-92
2022/02/20 06:44:17;;;;;;;20.95;19.90;;;12.00;74.90;;;;;;5017693;28;20026;-91
2022/02/20 06:46:43;;;;;;;20.45;19.52;;;12.00;75.00;;;;;;5018538;28;20525;-91
2022/02/20 06:49:09;;;;;;;20.33;19.38;;;12.00;75.10;;;;;;5002830;28;20054;-92
2022/02/20 06:51:35;;;;;;;20.88;19.88;;;12.00;75.10;;;;;;5018228;28;20038;-90
2022/02/20 06:54:02;;;;;;;19.63;18.73;;;12.00;75.20;;;;;;5015714;28;20037;-91
2022/02/20 06:56:28;;;;;;;21.02;19.77;;;12.00;75.20;;;;;;5018759;28;20025;-90
2022/02/20 06:58:54;;;;;;;21.00;19.90;;;12.00;75.30;;;;;;5021556;28;20034;-91
2022/02/20 07:01:20;;;;;;;19.58;18.67;;;12.00;75.30;;;;;;5009616;28;20037;-93
2022/02/20 07:03:47;;;;;;;23.83;20.13;;;12.00;75.30;;;;;;5010333;28;20041;-86
2022/02/20 07:06:13;;;;;;;20.02;19.13;;;12.00;75.30;;;;;;5014673;28;20055;-86
2022/02/20 07:08:39;;;;;;;20.05;19.15;;;12.00;75.40;;;;;;5011051;28;20045;-92
2022/02/20 07:11:05;;;;;;;20.00;19.10;;;12.00;75.40;;;;;;5012112;28;20033;-89
2022/02/20 07:13:31;;;;;;;19.85;18.95;;;12.00;75.50;;;;;;5010767;28;20049;-88
2022/02/20 07:15:57;;;;;;;19.73;18.83;;;12.00;75.50;;;;;;5010501;28;20042;-91
2022/02/20 07:18:23;;;;;;;20.25;19.27;;;12.00;75.60;;;;;;5014539;28;20033;-88
2022/02/20 07:20:49;;;;;;;20.35;19.35;;;12.00;75.50;;;;;;5008517;28;20044;-88
2022/02/20 07:23:16;;;;;;;19.27;18.38;;;12.00;75.60;;;;;;5011478;28;20057;-91
2022/02/20 07:25:42;;;;;;;20.75;19.65;;;12.00;75.60;;;;;;5014424;28;20045;-91
2022/02/20 07:28:09;;;;;;;19.55;18.65;;;12.00;75.60;;;;;;5014679;28;20038;-92
2022/02/20 07:30:35;;;;;;;19.55;18.65;;;12.00;75.60;;;;;;5042412;28;20042;-89
2022/02/20 07:33:04;;;;;;;19.40;18.50;;;12.00;75.60;;;;;;5010100;28;20038;-91
2022/02/20 07:35:35;;;;;;;19.17;18.27;;;12.00;75.60;;;;;;5007801;28;20625;-87
2022/02/20 07:38:01;;;;;;;19.25;18.35;;;12.00;75.60;;;;;;4972819;28;20049;-92
2022/02/20 07:40:30;;;;;;;21.08;19.98;;;12.00;75.70;;;;;;5010597;28;20513;-88
2022/02/20 07:42:57;;;;;;;20.23;19.33;;;12.10;75.80;;;;;;5011184;28;20382;-90
2022/02/20 07:45:24;;;;;;;19.92;18.95;;;12.10;75.70;;;;;;5010927;28;21425;-93
2022/02/20 07:47:59;;;;;;;19.88;18.98;;;12.10;75.80;;;;;;5013845;28;20048;-90
2022/02/20 07:50:30;;;;;;;20.52;19.42;;;12.10;75.80;;;;;;5006857;28;20383;-92
2022/02/20 07:52:57;;;;;;;;;;;12.10;75.70;;;;;;5016691;28;20025;-93
2022/02/20 07:55:23;;;;;;;19.90;19.00;;;12.20;75.80;;;;;;5011241;28;19916;-92
2022/02/20 07:57:50;;;;;;;20.33;19.42;;;12.20;75.70;;;;;;5011592;28;20490;-93
2022/02/20 08:00:20;;;;;;;20.35;19.42;;;12.20;75.70;;;;;;5012352;28;20026;-90
2022/02/20 08:02:46;;;;;;;20.15;19.25;;;12.20;75.70;;;;;;5011632;28;20487;-93
2022/02/20 08:05:12;;;;;;;20.05;19.15;;;12.20;75.70;;;;;;5009498;28;20041;-92
2022/02/20 08:07:38;;;;;;;20.15;19.25;;;12.30;75.70;;;;;;5015060;28;20045;-90
2022/02/20 08:10:05;;;;;;;20.23;19.27;;;12.30;75.70;;;;;;5012808;28;20033;-91
2022/02/20 08:12:31;;;;;;;20.60;19.50;;;12.40;75.80;;;;;;5012971;28;20497;-91
2022/02/20 08:14:57;;;;;;;20.20;19.30;;;12.40;75.70;;;;;;5010523;28;20505;-91
2022/02/20 08:17:23;;;;;;;20.08;19.17;;;12.50;75.70;;;;;;5010207;28;20034;-89
2022/02/20 08:19:49;;;;;;;19.95;19.05;;;12.40;75.70;;;;;;5014139;28;20410;-89
2022/02/20 08:22:16;;;;;;;22.33;21.00;;;12.50;75.70;;;;;;5014725;28;20053;-90
2022/02/20 08:24:43;;;;;;;20.73;19.77;;;12.50;75.80;;;;;;5011880;28;20387;-89
2022/02/20 08:27:12;;;;;;;20.77;19.77;;;12.50;75.80;;;;;;5017089;28;20038;-88
2022/02/20 08:29:39;;;;;;;20.75;19.70;;;12.50;75.80;;;;;;5010357;28;20041;-85
2022/02/20 08:32:06;;;;;;;20.65;19.65;;;12.50;75.80;;;;;;5011014;28;20483;-90
2022/02/20 08:34:36;;;;;;;21.42;20.42;;;12.60;76.00;;;;;;5016498;28;20064;-90
2022/02/20 08:37:04;;;;;;;21.40;20.38;;;12.60;76.00;;;;;;5040746;28;20030;-90
2022/02/20 08:39:31;;;;;;;20.08;19.17;;;12.60;75.90;;;;;;5011016;28;20022;-84
2022/02/20 08:41:57;;;;;;;21.92;20.42;;;12.60;75.90;;;;;;4993602;28;20049;-84
2022/02/20 08:44:23;;;;;;;20.85;19.88;;;12.60;75.90;;;;;;5009606;28;20037;-79
2022/02/20 08:46:49;;;;;;;21.17;20.17;;;12.60;75.90;;;;;;5009688;28;20037;-79
2022/02/20 08:49:15;;;;;;;21.98;20.67;;;12.60;76.00;;;;;;5018926;28;20138;-85
2022/02/20 08:51:42;;;;;;;21.90;20.80;;;12.60;76.00;;;;;;5009454;28;20038;-88
2022/02/20 08:54:08;;;;;;;21.30;20.30;;;12.60;76.00;;;;;;5011968;28;20037;-89
2022/02/20 08:56:34;;;;;;;21.50;20.30;;;12.60;76.20;;;;;;5009440;28;20045;-87
2022/02/20 08:59:00;;;;;;;21.10;20.10;;;12.60;76.20;;;;;;5009864;28;20029;-89
2022/02/20 09:01:28;;;;;;;20.63;19.67;;;12.60;76.30;;;;;;5022537;28;20037;-89
2022/02/20 09:04:02;;;;;;;21.08;20.08;;;12.60;76.20;;;;;;5042385;28;20034;-89
2022/02/20 09:06:29;;;;;;;21.52;20.52;;;12.70;76.30;;;;;;5005475;28;20513;-90
2022/02/20 09:08:56;;;;;;;20.88;19.90;;;12.70;76.20;;;;;;5015498;28;20034;-84
2022/02/20 09:11:22;;;;;;;20.83;19.85;;;12.70;76.20;;;;;;5010724;28;20026;-87
2022/02/20 09:13:48;;;;;;;20.63;19.63;;;12.80;76.20;;;;;;5011693;28;20041;-89
2022/02/20 09:16:14;;;;;;;21.40;20.40;;;12.80;76.20;;;;;;5015278;28;20034;-91
2022/02/20 09:18:40;;;;;;;21.17;20.17;;;12.80;76.20;;;;;;5010300;28;20034;-85
2022/02/20 09:21:06;;;;;;;20.40;19.50;;;12.80;77.00;;;;;;5011649;28;20022;-85
2022/02/20 09:23:33;;;;;;;21.08;20.08;;;12.80;76.20;;;;;;5008878;28;20048;-90
2022/02/20 09:26:00;;;;;;;22.20;20.98;;;12.80;76.20;;;;;;5010240;28;20053;-90
2022/02/20 09:28:26;;;;;;;20.45;19.35;;;12.90;76.30;;;;;;5011858;28;20049;-84
2022/02/20 09:30:52;;;;;;;20.45;19.45;;;12.90;76.40;;;;;;5038913;28;20038;-87
2022/02/20 09:33:18;;;;;;;21.15;20.05;;;12.90;76.40;;;;;;5010164;28;20037;-85
2022/02/20 09:35:44;;;;;;;20.15;19.25;;;12.90;76.40;;;;;;5003566;28;20064;-85
2022/02/20 09:38:11;;;;;;;20.35;19.45;;;12.90;76.40;;;;;;5009586;28;20037;-93
2022/02/20 09:40:37;;;;;;;21.45;20.45;;;13.00;76.40;;;;;;5010980;28;20030;-91
2022/02/20 09:43:03;;;;;;;21.60;20.60;;;13.00;76.30;;;;;;4991605;28;20037;-84
2022/02/20 09:45:29;;;;;;;21.25;20.25;;;13.00;76.20;;;;;;5008700;28;20042;-83
2022/02/20 09:48:03;;;;;;;21.67;20.67;;;13.10;76.20;;;;;;5008883;28;20049;-84
2022/02/20 09:50:29;;;;;;;22.35;21.15;;;13.20;76.20;;;;;;5008878;28;20406;-84
2022/02/20 09:52:55;;;;;;;22.35;20.98;;;13.30;76.20;;;;;;5006303;28;20446;-83
2022/02/20 09:55:21;;;;;;;21.95;20.95;;;13.30;76.10;;;;;;5007031;28;20037;-87
2022/02/20 09:57:47;;;;;;;22.10;21.10;;;13.30;76.00;;;;;;5012289;28;20393;-85
2022/02/20 10:00:14;;;;;;;22.45;21.42;;;13.40;76.10;;;;;;5008363;28;20429;-87
2022/02/20 10:02:42;;;;;;;22.58;21.58;;;13.50;76.10;;;;;;5011825;28;20057;-89
2022/02/20 10:05:21;;;;;;;21.60;20.60;;;13.60;76.00;;;;;;5008926;28;20046;-87
2022/02/20 10:07:48;;;;;;;22.30;21.30;;;13.70;75.90;;;;;;5009008;28;20487;-82
2022/02/20 10:10:25;;;;;;;22.63;21.60;;;13.80;75.70;;;;;;5007705;28;20025;-81
2022/02/20 10:13:03;;;;;;;22.95;21.85;;;14.00;75.40;;;;;;5008888;28;20050;-83
2022/02/20 10:15:36;;;;;;;23.30;22.20;;;14.20;75.00;;;;;;5006016;28;20049;-84
2022/02/20 10:18:16;;;;;;;24.50;23.17;;;14.30;74.80;;;;;;5013024;28;20025;-84
2022/02/20 10:20:43;;;;;;;22.52;21.52;;;14.30;75.50;;;;;;5009630;28;20030;-87
2022/02/20 10:23:13;;;;;;;23.73;22.50;;;14.40;75.50;;;;;;5008171;28;20034;-86
2022/02/20 10:25:40;;;;;;;1999.90;999.90;;;14.50;74.60;;;;;;5009933;28;20042;-89
2022/02/20 10:28:07;;;;;;;1999.90;999.90;;;14.50;74.60;;;;;;5012475;28;20038;-89
2022/02/20 10:30:33;;;;;;;1999.90;999.90;;;14.60;74.70;;;;;;5003571;28;20033;-87
2022/02/20 10:33:12;;;;;;;1999.90;999.90;;;14.60;74.60;;;;;;5013975;28;20061;-88
2022/02/20 10:35:40;;;;;;;1999.90;999.90;;;14.70;74.50;;;;;;5019741;28;20045;-88
2022/02/20 10:38:07;;;;;;;1999.90;999.90;;;14.70;74.40;;;;;;5001236;28;20399;-90
2022/02/20 10:40:34;;;;;;;1999.90;999.90;;;14.80;74.30;;;;;;5009953;28;20033;-89
2022/02/20 10:43:02;;;;;;;1999.90;999.90;;;14.90;74.10;;;;;;4998008;28;20037;-86
2022/02/20 10:45:36;;;;;;;1999.90;999.90;;;15.10;74.00;;;;;;4994612;28;20033;-85
2022/02/20 10:48:03;;;;;;;1999.90;999.90;;;15.10;73.90;;;;;;5008729;28;20034;-89
2022/02/20 10:50:31;;;;;;;1999.90;999.90;;;15.10;73.80;;;;;;5008176;28;20407;-85
2022/02/20 10:53:14;;;;;;;1999.90;999.90;;;15.00;73.90;;;;;;5024274;28;20029;-85
2022/02/20 10:55:42;;;;;;;1999.90;999.90;;;14.90;74.10;;;;;;5010902;28;20034;-89
2022/02/20 10:58:16;;;;;;;1999.90;999.90;;;14.80;74.30;;;;;;5012798;28;20046;-89
2022/02/20 11:00:53;;;;;;;1999.90;999.90;;;14.80;74.30;;;;;;5007353;28;20493;-89
2022/02/20 11:03:21;;;;;;;1999.90;999.90;;;14.80;74.40;;;;;;5013479;28;20491;-88
2022/02/20 11:05:47;;;;;;;1999.90;999.90;;;14.80;74.40;;;;;;5011954;28;20903;-88
2022/02/20 11:08:14;;;;;;;1999.90;999.90;;;14.80;74.30;;;;;;5011445;28;20475;-88
2022/02/20 11:10:41;;;;;;;1999.90;999.90;;;14.80;75.00;;;;;;5012609;28;20040;-86
2022/02/20 11:13:09;;;;;;;1999.90;999.90;;;14.80;74.10;;;;;;5011062;28;20037;-87
2022/02/20 11:15:35;;;;;;;1999.90;999.90;;;14.80;74.10;;;;;;4999095;28;20033;-88
2022/02/20 11:18:03;;;;;;;1999.90;999.90;;;14.90;74.10;;;;;;5013135;28;20329;-87
2022/02/20 11:20:30;;;;;;;1999.90;999.90;;;14.80;74.10;;;;;;5013782;28;20030;-86
2022/02/20 11:23:04;;;;;;;1999.90;999.90;;;14.80;74.00;;;;;;5014072;28;20046;-86
2022/02/20 11:25:32;;;;;;;1999.90;999.90;;;14.90;74.10;;;;;;5011629;28;20033;-84
2022/02/20 11:27:58;;;;;;;1999.90;999.90;;;15.00;74.00;;;;;;5010846;28;20029;-86
2022/02/20 11:30:25;;;;;;;1999.90;999.90;;;15.10;73.70;;;;;;5009211;28;20042;-87
2022/02/20 11:32:52;;;;;;;1999.90;999.90;;;15.20;73.40;;;;;;5008920;28;20390;-83
2022/02/20 11:35:19;;;;;;;1999.90;999.90;;;15.20;73.30;;;;;;5013268;28;20089;-90
2022/02/20 11:37:50;;;;;;;1999.90;999.90;;;15.20;73.30;;;;;;5015697;28;20033;-85
2022/02/20 11:40:16;;;;;;;1999.90;999.90;;;15.20;73.30;;;;;;5010538;28;20026;-88
2022/02/20 11:43:08;;;;;;;1999.90;999.90;;;15.20;73.40;;;;;;5011673;28;20390;-88
2022/02/20 11:45:37;;;;;;;;;;;15.20;73.30;;;;;;5008676;28;20022;-91
2022/02/20 11:48:07;;;;;;;1999.90;999.90;;;15.30;73.20;;;;;;5009903;28;20305;-90
2022/02/20 11:50:37;;;;;;;1999.90;999.90;;;15.40;72.80;;;;;;5014215;28;20041;-85
2022/02/20 11:53:08;;;;;;;1999.90;999.90;;;15.60;72.50;;;;;;5022841;28;20510;-84
2022/02/20 11:55:39;;;;;;;1999.90;999.90;;;15.60;72.30;;;;;;5008216;28;20037;-89
2022/02/20 11:58:11;;;;;;;1999.90;999.90;;;15.50;72.30;;;;;;5007359;28;20057;-86
2022/02/20 12:00:59;;;;;;;1999.90;999.90;;;15.40;72.40;;;;;;5009671;28;20499;-89
2022/02/20 12:03:29;;;;;;;1999.90;999.90;;;15.40;72.60;;;;;;5012000;28;20038;-93
2022/02/20 12:06:14;;;;;;;1999.90;999.90;;;15.30;72.60;;;;;;5008146;28;20069;-89
2022/02/20 12:08:42;;;;;;;1999.90;999.90;;;15.30;72.60;;;;;;5007087;28;20044;-88
2022/02/20 12:11:16;;;;;;;1999.90;999.90;;;15.20;72.60;;;;;;5008361;28;20025;-86
2022/02/20 12:13:52;;;;;;;1999.90;999.90;;;15.20;72.70;;;;;;5005331;28;20026;-88
2022/02/20 12:16:19;;;;;;;1999.90;999.90;;;15.10;72.70;;;;;;5001062;28;20403;-88
2022/02/20 12:19:04;;;;;;;1999.90;999.90;;;15.10;72.60;;;;;;5003583;28;20053;-86
2022/02/20 12:21:31;;;;;;;1999.90;999.90;;;15.20;72.60;;;;;;5003316;28;20394;-90
2022/02/20 12:23:58;;;;;;;1999.90;999.90;;;15.20;72.50;;;;;;5004839;28;20065;-88